PWSweather.com
Personal Weather Stations
Station Observations
WATERF01
WaterfordIE

WaterfordIE

Lat: 52.2412507, Lon: -7.1414691

Elevation: 65

Station Type: Davis Vantage Vue

www.waterfordweather.com

High Low Average
Temperature 47.0°F8.3°C 31.6°F-0.2°C 40.3°F4.6°C
Dew Point 46.7°F8.2°C 31.4°F-0.3°C 40.0°F4.4°C
Winds 6.9 mph 11.1 kmh Calm Calm 2.0 mph SE3.2 kmh SE
Wind Gusts 11.5 mph18.5 kmh -- 3.0 mph4.8 kmh
Humidity 99% 90% 99%
Pressure 29.83 in1010.2 mb 29.49 in998.6 mb -
Precipitation 0.01 in0.3 mm - -
Hour Temp Dew Point Humidity Winds Wind Gusts Pressure Precip Precip Rate Daily Precip Total
12:00 AM 38.0°F3.3°C 37.7°F3.2°C 99% Calm Calm -- 29.49 in998.6 mb - 0.00 in0.0 mm 0.00 in0.0 mm
12:10 AM 37.9°F3.3°C 37.6°F3.1°C 99% Calm Calm -- 29.50 in999.0 mb - 0.00 in0.0 mm 0.00 in0.0 mm
12:20 AM 37.7°F3.2°C 37.4°F3.0°C 99% Calm Calm -- 29.50 in999.0 mb - 0.00 in0.0 mm 0.00 in0.0 mm
12:30 AM 37.5°F3.1°C 37.2°F2.9°C 99% Calm Calm -- 29.50 in999.0 mb - 0.00 in0.0 mm 0.00 in0.0 mm
12:40 AM 37.5°F3.1°C 37.2°F2.9°C 99% Calm Calm -- 29.51 in999.3 mb - 0.00 in0.0 mm 0.00 in0.0 mm
12:50 AM 37.9°F3.3°C 37.6°F3.1°C 99% Calm Calm -- 29.51 in999.3 mb - 0.00 in0.0 mm 0.00 in0.0 mm
01:00 AM 37.8°F3.2°C 37.5°F3.1°C 99% Calm Calm -- 29.51 in999.3 mb - 0.00 in0.0 mm 0.00 in0.0 mm
01:10 AM 37.4°F3.0°C 37.1°F2.8°C 99% Calm Calm -- 29.51 in999.3 mb - 0.00 in0.0 mm 0.00 in0.0 mm
01:20 AM 37.3°F2.9°C 37.0°F2.8°C 99% Calm Calm -- 29.52 in999.7 mb - 0.00 in0.0 mm 0.00 in0.0 mm
01:30 AM 37.2°F2.9°C 36.9°F2.7°C 99% Calm Calm -- 29.52 in999.7 mb - 0.00 in0.0 mm 0.00 in0.0 mm
01:40 AM 37.3°F2.9°C 37.0°F2.8°C 99% Calm Calm -- 29.52 in999.7 mb - 0.00 in0.0 mm 0.00 in0.0 mm
01:50 AM 37.5°F3.1°C 37.3°F2.9°C 99% Calm Calm -- 29.53 in1000.0 mb - 0.00 in0.0 mm 0.00 in0.0 mm
02:00 AM 37.2°F2.9°C 36.9°F2.7°C 99% Calm Calm -- 29.53 in1000.0 mb - 0.00 in0.0 mm 0.00 in0.0 mm
02:10 AM 36.9°F2.7°C 36.6°F2.6°C 99% Calm Calm -- 29.53 in1000.0 mb - 0.00 in0.0 mm 0.00 in0.0 mm
02:20 AM 36.8°F2.7°C 36.6°F2.6°C 99% Calm Calm -- 29.53 in1000.0 mb - 0.00 in0.0 mm 0.00 in0.0 mm
02:30 AM 36.4°F2.4°C 36.1°F2.3°C 99% Calm Calm -- 29.54 in1000.3 mb - 0.00 in0.0 mm 0.00 in0.0 mm
02:40 AM 36.5°F2.5°C 36.2°F2.3°C 99% Calm Calm -- 29.54 in1000.3 mb - 0.00 in0.0 mm 0.00 in0.0 mm
02:50 AM 36.7°F2.6°C 36.4°F2.4°C 99% Calm Calm -- 29.55 in1000.7 mb - 0.00 in0.0 mm 0.00 in0.0 mm
03:00 AM 36.7°F2.6°C 36.4°F2.4°C 99% Calm Calm -- 29.55 in1000.7 mb - 0.00 in0.0 mm 0.00 in0.0 mm
03:10 AM 36.7°F2.6°C 36.4°F2.4°C 99% Calm Calm -- 29.55 in1000.7 mb - 0.00 in0.0 mm 0.00 in0.0 mm
03:20 AM 36.1°F2.3°C 35.8°F2.1°C 99% Calm Calm -- 29.55 in1000.7 mb - 0.00 in0.0 mm 0.00 in0.0 mm
03:30 AM 35.5°F1.9°C 35.2°F1.8°C 99% Calm Calm -- 29.55 in1000.7 mb - 0.00 in0.0 mm 0.00 in0.0 mm
03:40 AM 35.5°F1.9°C 35.3°F1.8°C 99% Calm Calm -- 29.56 in1001.0 mb - 0.00 in0.0 mm 0.00 in0.0 mm
03:50 AM 35.7°F2.1°C 35.4°F1.9°C 99% Calm Calm -- 29.56 in1001.0 mb - 0.00 in0.0 mm 0.00 in0.0 mm
04:00 AM 36.5°F2.5°C 36.2°F2.3°C 99% Calm Calm -- 29.56 in1001.0 mb - 0.00 in0.0 mm 0.00 in0.0 mm
04:10 AM 36.6°F2.6°C 36.3°F2.4°C 99% Calm Calm -- 29.56 in1001.0 mb - 0.00 in0.0 mm 0.00 in0.0 mm
04:20 AM 35.7°F2.1°C 35.4°F1.9°C 99% Calm Calm -- 29.56 in1001.0 mb - 0.00 in0.0 mm 0.00 in0.0 mm
04:30 AM 35.4°F1.9°C 35.1°F1.7°C 99% Calm Calm -- 29.57 in1001.4 mb - 0.00 in0.0 mm 0.00 in0.0 mm
04:40 AM 35.0°F1.7°C 34.7°F1.5°C 99% Calm Calm -- 29.57 in1001.4 mb - 0.00 in0.0 mm 0.00 in0.0 mm
04:50 AM 35.0°F1.7°C 34.7°F1.5°C 99% Calm Calm -- 29.57 in1001.4 mb - 0.00 in0.0 mm 0.00 in0.0 mm
05:00 AM 34.7°F1.5°C 34.4°F1.3°C 99% Calm Calm -- 29.57 in1001.4 mb - 0.00 in0.0 mm 0.00 in0.0 mm
05:10 AM 34.2°F1.2°C 33.9°F1.1°C 99% Calm Calm -- 29.58 in1001.7 mb - 0.00 in0.0 mm 0.00 in0.0 mm
05:20 AM 34.1°F1.2°C 33.8°F1.0°C 99% Calm Calm -- 29.57 in1001.4 mb - 0.00 in0.0 mm 0.00 in0.0 mm
05:30 AM 34.0°F1.1°C 33.7°F0.9°C 99% Calm Calm -- 29.57 in1001.4 mb - 0.00 in0.0 mm 0.00 in0.0 mm
05:40 AM 33.5°F0.8°C 33.2°F0.7°C 99% Calm Calm -- 29.57 in1001.4 mb - 0.00 in0.0 mm 0.00 in0.0 mm
05:50 AM 32.9°F0.5°C 32.6°F0.3°C 99% Calm Calm -- 29.58 in1001.7 mb - 0.00 in0.0 mm 0.00 in0.0 mm
06:00 AM 32.9°F0.5°C 32.7°F0.4°C 99% Calm Calm -- 29.57 in1001.4 mb - 0.00 in0.0 mm 0.00 in0.0 mm
06:10 AM 33.0°F0.6°C 32.8°F0.4°C 99% Calm Calm -- 29.58 in1001.7 mb - 0.00 in0.0 mm 0.00 in0.0 mm
06:20 AM 32.5°F0.3°C 32.2°F0.1°C 99% Calm Calm -- 29.57 in1001.4 mb - 0.00 in0.0 mm 0.00 in0.0 mm
06:30 AM 32.0°F0.0°C 31.7°F-0.2°C 99% Calm Calm -- 29.57 in1001.4 mb - 0.00 in0.0 mm 0.00 in0.0 mm
06:40 AM 32.1°F0.1°C 31.9°F-0.1°C 99% Calm Calm -- 29.58 in1001.7 mb - 0.00 in0.0 mm 0.00 in0.0 mm
06:50 AM 32.0°F0.0°C 31.8°F-0.1°C 99% Calm Calm -- 29.58 in1001.7 mb - 0.00 in0.0 mm 0.00 in0.0 mm
07:00 AM 31.9°F-0.1°C 31.7°F-0.2°C 99% Calm Calm -- 29.58 in1001.7 mb - 0.00 in0.0 mm 0.00 in0.0 mm
07:10 AM 31.6°F-0.2°C 31.4°F-0.3°C 99% Calm Calm -- 29.59 in1002.0 mb - 0.00 in0.0 mm 0.00 in0.0 mm
07:20 AM 31.9°F-0.1°C 31.7°F-0.2°C 99% Calm Calm -- 29.59 in1002.0 mb - 0.00 in0.0 mm 0.00 in0.0 mm
07:30 AM 31.8°F-0.1°C 31.6°F-0.2°C 99% Calm Calm -- 29.60 in1002.4 mb - 0.00 in0.0 mm 0.00 in0.0 mm
07:40 AM 32.1°F0.1°C 31.9°F-0.1°C 99% Calm Calm -- 29.59 in1002.0 mb - 0.00 in0.0 mm 0.00 in0.0 mm
07:50 AM 32.1°F0.1°C 31.9°F-0.1°C 99% Calm Calm -- 29.59 in1002.0 mb - 0.00 in0.0 mm 0.00 in0.0 mm
08:00 AM 32.0°F0.0°C 31.7°F-0.2°C 99% Calm Calm -- 29.59 in1002.0 mb - 0.00 in0.0 mm 0.00 in0.0 mm
08:10 AM 32.1°F0.1°C 31.8°F-0.1°C 99% Calm Calm -- 29.59 in1002.0 mb - 0.00 in0.0 mm 0.00 in0.0 mm
08:20 AM 32.0°F0.0°C 31.8°F-0.1°C 99% Calm Calm -- 29.59 in1002.0 mb - 0.00 in0.0 mm 0.00 in0.0 mm
08:30 AM 32.1°F0.1°C 31.9°F-0.1°C 99% Calm Calm -- 29.59 in1002.0 mb - 0.00 in0.0 mm 0.00 in0.0 mm
08:40 AM 32.3°F0.2°C 32.1°F0.1°C 99% Calm Calm -- 29.59 in1002.0 mb - 0.00 in0.0 mm 0.00 in0.0 mm
08:50 AM 32.6°F0.3°C 32.4°F0.2°C 99% Calm Calm -- 29.59 in1002.0 mb - 0.00 in0.0 mm 0.00 in0.0 mm
09:00 AM 33.2°F0.7°C 32.9°F0.5°C 99% Calm Calm -- 29.59 in1002.0 mb - 0.00 in0.0 mm 0.00 in0.0 mm
09:10 AM 33.6°F0.9°C 33.3°F0.7°C 99% Calm Calm -- 29.59 in1002.0 mb - 0.00 in0.0 mm 0.00 in0.0 mm
09:20 AM 33.9°F1.1°C 33.6°F0.9°C 99% Calm Calm -- 29.60 in1002.4 mb - 0.00 in0.0 mm 0.00 in0.0 mm
09:30 AM 34.3°F1.3°C 34.0°F1.1°C 99% Calm Calm -- 29.60 in1002.4 mb - 0.00 in0.0 mm 0.00 in0.0 mm
09:40 AM 34.7°F1.5°C 34.4°F1.3°C 99% Calm Calm -- 29.61 in1002.7 mb - 0.00 in0.0 mm 0.00 in0.0 mm
09:50 AM 35.0°F1.7°C 34.8°F1.6°C 99% Calm Calm -- 29.61 in1002.7 mb - 0.00 in0.0 mm 0.00 in0.0 mm
10:00 AM 35.6°F2.0°C 35.3°F1.8°C 99% Calm Calm -- 29.61 in1002.7 mb - 0.01 in0.3 mm 0.01 in0.3 mm
10:10 AM 36.7°F2.6°C 36.5°F2.5°C 99% Calm Calm -- 29.61 in1002.7 mb - 0.00 in0.0 mm 0.01 in0.3 mm
10:20 AM 37.5°F3.1°C 37.2°F2.9°C 99% Calm Calm -- 29.61 in1002.7 mb - 0.00 in0.0 mm 0.01 in0.3 mm
10:30 AM 37.7°F3.2°C 37.4°F3.0°C 99% Calm Calm -- 29.61 in1002.7 mb - 0.00 in0.0 mm 0.01 in0.3 mm
10:40 AM 38.0°F3.3°C 37.7°F3.2°C 99% Calm Calm -- 29.61 in1002.7 mb - 0.00 in0.0 mm 0.01 in0.3 mm
10:50 AM 38.3°F3.5°C 38.0°F3.3°C 99% Calm Calm -- 29.61 in1002.7 mb - 0.00 in0.0 mm 0.01 in0.3 mm
11:00 AM 38.9°F3.8°C 38.6°F3.7°C 99% Calm Calm -- 29.61 in1002.7 mb - 0.00 in0.0 mm 0.01 in0.3 mm
11:10 AM 39.3°F4.1°C 39.1°F3.9°C 99% Calm Calm -- 29.61 in1002.7 mb - 0.00 in0.0 mm 0.01 in0.3 mm
11:20 AM 39.9°F4.4°C 39.6°F4.2°C 99% 1.2 mph E1.9 kmh E 4.6 mph7.4 kmh 29.61 in1002.7 mb - 0.00 in0.0 mm 0.01 in0.3 mm
11:30 AM 40.5°F4.7°C 40.3°F4.6°C 99% Calm Calm 1.2 mph1.9 kmh 29.61 in1002.7 mb - 0.00 in0.0 mm 0.01 in0.3 mm
11:40 AM 41.7°F5.4°C 41.5°F5.3°C 99% Calm Calm 2.3 mph3.7 kmh 29.60 in1002.4 mb - 0.00 in0.0 mm 0.01 in0.3 mm
11:50 AM 42.7°F5.9°C 42.4°F5.8°C 99% 1.2 mph E1.9 kmh E 4.6 mph7.4 kmh 29.60 in1002.4 mb - 0.00 in0.0 mm 0.01 in0.3 mm
12:00 PM 42.8°F6.0°C 42.5°F5.8°C 99% 1.2 mph E1.9 kmh E 5.8 mph9.3 kmh 29.60 in1002.4 mb - 0.00 in0.0 mm 0.01 in0.3 mm
12:10 PM 43.1°F6.2°C 42.8°F6.0°C 99% 2.3 mph E3.7 kmh E 5.8 mph9.3 kmh 29.59 in1002.0 mb - 0.00 in0.0 mm 0.01 in0.3 mm
12:20 PM 43.5°F6.4°C 43.2°F6.2°C 99% 2.3 mph E3.7 kmh E 2.3 mph3.7 kmh 29.59 in1002.0 mb - 0.00 in0.0 mm 0.01 in0.3 mm
12:30 PM 43.4°F6.3°C 43.1°F6.2°C 99% 1.2 mph E1.9 kmh E 4.6 mph7.4 kmh 29.59 in1002.0 mb - 0.00 in0.0 mm 0.01 in0.3 mm
12:40 PM 43.3°F6.3°C 43.0°F6.1°C 99% 1.2 mph E1.9 kmh E 4.6 mph7.4 kmh 29.59 in1002.0 mb - 0.00 in0.0 mm 0.01 in0.3 mm
12:50 PM 43.5°F6.4°C 43.2°F6.2°C 99% Calm Calm 1.2 mph1.9 kmh 29.59 in1002.0 mb - 0.00 in0.0 mm 0.01 in0.3 mm
01:00 PM 43.9°F6.6°C 43.6°F6.4°C 99% Calm Calm 2.3 mph3.7 kmh 29.59 in1002.0 mb - 0.00 in0.0 mm 0.01 in0.3 mm
01:10 PM 44.3°F6.8°C 44.1°F6.7°C 99% Calm Calm -- 29.59 in1002.0 mb - 0.00 in0.0 mm 0.01 in0.3 mm
01:20 PM 44.7°F7.1°C 44.4°F6.9°C 99% Calm Calm -- 29.59 in1002.0 mb - 0.00 in0.0 mm 0.01 in0.3 mm
01:30 PM 45.0°F7.2°C 44.8°F7.1°C 99% Calm Calm -- 29.59 in1002.0 mb - 0.00 in0.0 mm 0.01 in0.3 mm
01:40 PM 45.6°F7.6°C 45.3°F7.4°C 99% 2.3 mph E3.7 kmh E 2.3 mph3.7 kmh 29.59 in1002.0 mb - 0.00 in0.0 mm 0.01 in0.3 mm
01:50 PM 46.0°F7.8°C 45.8°F7.7°C 99% 2.3 mph ESE3.7 kmh ESE 5.8 mph9.3 kmh 29.59 in1002.0 mb - 0.00 in0.0 mm 0.01 in0.3 mm
02:00 PM 46.2°F7.9°C 46.0°F7.8°C 99% 3.5 mph E5.6 kmh E 6.9 mph11.1 kmh 29.59 in1002.0 mb - 0.00 in0.0 mm 0.01 in0.3 mm
02:10 PM 46.3°F7.9°C 46.0°F7.8°C 99% 3.5 mph E5.6 kmh E 5.8 mph9.3 kmh 29.59 in1002.0 mb - 0.00 in0.0 mm 0.01 in0.3 mm
02:20 PM 46.3°F7.9°C 46.0°F7.8°C 99% 3.5 mph E5.6 kmh E 5.8 mph9.3 kmh 29.59 in1002.0 mb - 0.00 in0.0 mm 0.01 in0.3 mm
02:30 PM 46.1°F7.8°C 45.8°F7.7°C 99% 4.6 mph E7.4 kmh E 8.1 mph13.0 kmh 29.59 in1002.0 mb - 0.00 in0.0 mm 0.01 in0.3 mm
02:40 PM 46.0°F7.8°C 45.7°F7.6°C 99% 4.6 mph E7.4 kmh E 6.9 mph11.1 kmh 29.59 in1002.0 mb - 0.00 in0.0 mm 0.01 in0.3 mm
02:50 PM 46.2°F7.9°C 45.9°F7.7°C 99% 4.6 mph E7.4 kmh E 8.1 mph13.0 kmh 29.59 in1002.0 mb - 0.00 in0.0 mm 0.01 in0.3 mm
03:00 PM 46.4°F8.0°C 46.1°F7.8°C 99% 3.5 mph E5.6 kmh E 6.9 mph11.1 kmh 29.59 in1002.0 mb - 0.00 in0.0 mm 0.01 in0.3 mm
03:10 PM 46.7°F8.2°C 46.4°F8.0°C 99% 4.6 mph E7.4 kmh E 9.2 mph14.8 kmh 29.59 in1002.0 mb - 0.00 in0.0 mm 0.01 in0.3 mm
03:20 PM 46.8°F8.2°C 46.5°F8.1°C 99% 4.6 mph ESE7.4 kmh ESE 9.2 mph14.8 kmh 29.60 in1002.4 mb - 0.00 in0.0 mm 0.01 in0.3 mm
03:30 PM 46.8°F8.2°C 46.5°F8.1°C 99% 5.8 mph E9.3 kmh E 8.1 mph13.0 kmh 29.60 in1002.4 mb - 0.00 in0.0 mm 0.01 in0.3 mm
03:40 PM 46.8°F8.2°C 46.5°F8.1°C 99% 5.8 mph E9.3 kmh E 11.5 mph18.5 kmh 29.60 in1002.4 mb - 0.00 in0.0 mm 0.01 in0.3 mm
03:50 PM 46.8°F8.2°C 46.5°F8.1°C 99% 4.6 mph E7.4 kmh E 11.5 mph18.5 kmh 29.61 in1002.7 mb - 0.00 in0.0 mm 0.01 in0.3 mm
04:00 PM 46.7°F8.2°C 46.5°F8.1°C 99% 4.6 mph E7.4 kmh E 8.1 mph13.0 kmh 29.61 in1002.7 mb - 0.00 in0.0 mm 0.01 in0.3 mm
04:10 PM 46.7°F8.2°C 46.4°F8.0°C 99% 5.8 mph ESE9.3 kmh ESE 8.1 mph13.0 kmh 29.61 in1002.7 mb - 0.00 in0.0 mm 0.01 in0.3 mm
04:20 PM 46.7°F8.2°C 46.4°F8.0°C 99% 4.6 mph E7.4 kmh E 9.2 mph14.8 kmh 29.61 in1002.7 mb - 0.00 in0.0 mm 0.01 in0.3 mm
04:30 PM 46.8°F8.2°C 46.5°F8.1°C 99% 4.6 mph ESE7.4 kmh ESE 5.8 mph9.3 kmh 29.62 in1003.0 mb - 0.00 in0.0 mm 0.01 in0.3 mm
04:40 PM 46.9°F8.3°C 46.6°F8.1°C 99% 4.6 mph ESE7.4 kmh ESE 9.2 mph14.8 kmh 29.62 in1003.0 mb - 0.00 in0.0 mm 0.01 in0.3 mm
04:50 PM 47.0°F8.3°C 46.7°F8.2°C 99% 4.6 mph E7.4 kmh E 9.2 mph14.8 kmh 29.62 in1003.0 mb - 0.00 in0.0 mm 0.01 in0.3 mm
05:00 PM 47.0°F8.3°C 46.7°F8.2°C 99% 3.5 mph E5.6 kmh E 6.9 mph11.1 kmh 29.63 in1003.4 mb - 0.00 in0.0 mm 0.01 in0.3 mm
05:10 PM 46.8°F8.2°C 46.5°F8.1°C 99% 3.5 mph E5.6 kmh E 6.9 mph11.1 kmh 29.63 in1003.4 mb - 0.00 in0.0 mm 0.01 in0.3 mm
05:20 PM 46.8°F8.2°C 46.5°F8.1°C 99% 5.8 mph E9.3 kmh E 8.1 mph13.0 kmh 29.63 in1003.4 mb - 0.00 in0.0 mm 0.01 in0.3 mm
05:30 PM 46.5°F8.1°C 46.2°F7.9°C 99% 4.6 mph E7.4 kmh E 6.9 mph11.1 kmh 29.63 in1003.4 mb - 0.00 in0.0 mm 0.01 in0.3 mm
05:40 PM 46.2°F7.9°C 45.9°F7.7°C 99% 4.6 mph E7.4 kmh E 9.2 mph14.8 kmh 29.63 in1003.4 mb - 0.00 in0.0 mm 0.01 in0.3 mm
05:50 PM 45.9°F7.7°C 45.6°F7.6°C 99% 5.8 mph E9.3 kmh E 9.2 mph14.8 kmh 29.64 in1003.7 mb - 0.00 in0.0 mm 0.01 in0.3 mm
06:00 PM 45.8°F7.7°C 45.6°F7.6°C 99% 5.8 mph E9.3 kmh E 8.1 mph13.0 kmh 29.64 in1003.7 mb - 0.00 in0.0 mm 0.01 in0.3 mm
06:10 PM 45.9°F7.7°C 45.6°F7.6°C 99% 6.9 mph E11.1 kmh E 11.5 mph18.5 kmh 29.64 in1003.7 mb - 0.00 in0.0 mm 0.01 in0.3 mm
06:20 PM 46.0°F7.8°C 45.7°F7.6°C 99% 6.9 mph E11.1 kmh E 8.1 mph13.0 kmh 29.65 in1004.1 mb - 0.00 in0.0 mm 0.01 in0.3 mm
06:30 PM 46.1°F7.8°C 45.8°F7.7°C 99% 5.8 mph E9.3 kmh E 8.1 mph13.0 kmh 29.65 in1004.1 mb - 0.00 in0.0 mm 0.01 in0.3 mm
06:40 PM 46.3°F7.9°C 46.0°F7.8°C 99% 5.8 mph E9.3 kmh E 8.1 mph13.0 kmh 29.66 in1004.4 mb - 0.00 in0.0 mm 0.01 in0.3 mm
06:50 PM 46.1°F7.8°C 45.9°F7.7°C 99% 2.3 mph E3.7 kmh E 5.8 mph9.3 kmh 29.66 in1004.4 mb - 0.00 in0.0 mm 0.01 in0.3 mm
07:00 PM 45.9°F7.7°C 45.7°F7.6°C 99% 3.5 mph E5.6 kmh E 5.8 mph9.3 kmh 29.67 in1004.7 mb - 0.00 in0.0 mm 0.01 in0.3 mm
07:10 PM 46.1°F7.8°C 45.8°F7.7°C 99% 4.6 mph E7.4 kmh E 8.1 mph13.0 kmh 29.67 in1004.7 mb - 0.00 in0.0 mm 0.01 in0.3 mm
07:20 PM 46.1°F7.8°C 45.8°F7.7°C 99% 3.5 mph E5.6 kmh E 5.8 mph9.3 kmh 29.67 in1004.7 mb - 0.00 in0.0 mm 0.01 in0.3 mm
07:30 PM 45.8°F7.7°C 45.5°F7.5°C 99% 3.5 mph E5.6 kmh E 5.8 mph9.3 kmh 29.68 in1005.1 mb - 0.00 in0.0 mm 0.01 in0.3 mm
07:40 PM 45.5°F7.5°C 45.2°F7.3°C 99% 1.2 mph E1.9 kmh E 3.5 mph5.6 kmh 29.68 in1005.1 mb - 0.00 in0.0 mm 0.01 in0.3 mm
07:50 PM 45.2°F7.3°C 44.9°F7.2°C 99% 3.5 mph E5.6 kmh E 8.1 mph13.0 kmh 29.68 in1005.1 mb - 0.00 in0.0 mm 0.01 in0.3 mm
08:00 PM 44.9°F7.2°C 44.6°F7.0°C 99% 4.6 mph E7.4 kmh E 8.1 mph13.0 kmh 29.69 in1005.4 mb - 0.00 in0.0 mm 0.01 in0.3 mm
08:10 PM 44.8°F7.1°C 44.5°F6.9°C 99% 6.9 mph E11.1 kmh E 11.5 mph18.5 kmh 29.69 in1005.4 mb - 0.00 in0.0 mm 0.01 in0.3 mm
08:20 PM 44.6°F7.0°C 44.4°F6.9°C 99% 5.8 mph E9.3 kmh E 9.2 mph14.8 kmh 29.70 in1005.8 mb - 0.00 in0.0 mm 0.01 in0.3 mm
08:30 PM 44.4°F6.9°C 44.2°F6.8°C 99% 4.6 mph E7.4 kmh E 6.9 mph11.1 kmh 29.70 in1005.8 mb - 0.00 in0.0 mm 0.01 in0.3 mm
08:40 PM 44.1°F6.7°C 43.8°F6.6°C 99% 4.6 mph E7.4 kmh E 9.2 mph14.8 kmh 29.70 in1005.8 mb - 0.00 in0.0 mm 0.01 in0.3 mm
08:50 PM 43.9°F6.6°C 43.6°F6.4°C 99% 5.8 mph E9.3 kmh E 11.5 mph18.5 kmh 29.71 in1006.1 mb - 0.00 in0.0 mm 0.01 in0.3 mm
09:00 PM 43.8°F6.6°C 43.5°F6.4°C 99% 4.6 mph E7.4 kmh E 8.1 mph13.0 kmh 29.72 in1006.4 mb - 0.00 in0.0 mm 0.01 in0.3 mm
09:10 PM 43.8°F6.6°C 43.5°F6.4°C 99% 3.5 mph E5.6 kmh E 5.8 mph9.3 kmh 29.72 in1006.4 mb - 0.00 in0.0 mm 0.01 in0.3 mm
09:20 PM 43.7°F6.5°C 43.5°F6.4°C 99% 5.8 mph E9.3 kmh E 8.1 mph13.0 kmh 29.73 in1006.8 mb - 0.00 in0.0 mm 0.01 in0.3 mm
09:30 PM 43.7°F6.5°C 43.4°F6.3°C 99% 4.6 mph ENE7.4 kmh ENE 8.1 mph13.0 kmh 29.74 in1007.1 mb - 0.00 in0.0 mm 0.01 in0.3 mm
09:40 PM 43.7°F6.5°C 43.4°F6.3°C 99% 4.6 mph E7.4 kmh E 9.2 mph14.8 kmh 29.75 in1007.5 mb - 0.00 in0.0 mm 0.01 in0.3 mm
09:50 PM 43.6°F6.4°C 43.3°F6.3°C 99% 3.5 mph E5.6 kmh E 5.8 mph9.3 kmh 29.75 in1007.5 mb - 0.00 in0.0 mm 0.01 in0.3 mm
10:00 PM 43.6°F6.4°C 43.3°F6.3°C 99% 1.2 mph E1.9 kmh E 2.3 mph3.7 kmh 29.76 in1007.8 mb - 0.00 in0.0 mm 0.01 in0.3 mm
10:10 PM 43.4°F6.3°C 43.2°F6.2°C 99% 1.2 mph E1.9 kmh E 2.3 mph3.7 kmh 29.76 in1007.8 mb - 0.00 in0.0 mm 0.01 in0.3 mm
10:20 PM 43.2°F6.2°C 42.9°F6.1°C 99% 1.2 mph NNE1.9 kmh NNE 2.3 mph3.7 kmh 29.77 in1008.1 mb - 0.00 in0.0 mm 0.01 in0.3 mm
10:30 PM 43.2°F6.2°C 42.9°F6.1°C 99% 2.3 mph E3.7 kmh E 5.8 mph9.3 kmh 29.77 in1008.1 mb - 0.00 in0.0 mm 0.01 in0.3 mm
10:40 PM 43.2°F6.2°C 40.5°F4.7°C 90% 1.2 mph E1.9 kmh E 4.6 mph7.4 kmh 29.78 in1008.5 mb - 0.00 in0.0 mm 0.01 in0.3 mm
10:50 PM 43.0°F6.1°C 42.8°F6.0°C 99% 1.2 mph NE1.9 kmh NE 2.3 mph3.7 kmh 29.78 in1008.5 mb - 0.00 in0.0 mm 0.01 in0.3 mm
11:00 PM 43.1°F6.2°C 42.8°F6.0°C 99% 2.3 mph NW3.7 kmh NW 5.8 mph9.3 kmh 29.79 in1008.8 mb - 0.00 in0.0 mm 0.01 in0.3 mm
11:10 PM 43.1°F6.2°C 42.8°F6.0°C 99% 1.2 mph SSW1.9 kmh SSW 4.6 mph7.4 kmh 29.80 in1009.1 mb - 0.00 in0.0 mm 0.01 in0.3 mm
11:20 PM 42.7°F5.9°C 42.4°F5.8°C 99% 1.2 mph NW1.9 kmh NW 2.3 mph3.7 kmh 29.81 in1009.5 mb - 0.00 in0.0 mm 0.01 in0.3 mm
11:30 PM 42.3°F5.7°C 42.0°F5.6°C 99% 2.3 mph NW3.7 kmh NW 5.8 mph9.3 kmh 29.82 in1009.8 mb - 0.00 in0.0 mm 0.01 in0.3 mm
11:40 PM 42.2°F5.7°C 41.9°F5.5°C 99% 2.3 mph NW3.7 kmh NW 5.8 mph9.3 kmh 29.83 in1010.2 mb - 0.00 in0.0 mm 0.01 in0.3 mm
11:50 PM 42.2°F5.7°C 41.9°F5.5°C 99% Calm Calm 2.3 mph3.7 kmh 29.83 in1010.2 mb - 0.00 in0.0 mm 0.01 in0.3 mm